sensor_id;sensor_type;location;lat;lon;timestamp;P1;durP1;ratioP1;P2;durP2;ratioP2
47113;SDS011;32867;51.556;6.832;2023-08-24T00:02:47;7.65;;;4.68;;
47113;SDS011;32867;51.556;6.832;2023-08-24T00:07:48;7.55;;;4.82;;
47113;SDS011;32867;51.556;6.832;2023-08-24T00:12:48;8.40;;;4.50;;
47113;SDS011;32867;51.556;6.832;2023-08-24T00:17:49;6.53;;;4.32;;
47113;SDS011;32867;51.556;6.832;2023-08-24T00:22:50;6.25;;;3.95;;
47113;SDS011;32867;51.556;6.832;2023-08-24T00:27:54;6.53;;;4.00;;
47113;SDS011;32867;51.556;6.832;2023-08-24T00:32:54;7.05;;;4.80;;
47113;SDS011;32867;51.556;6.832;2023-08-24T00:37:55;6.72;;;4.13;;
47113;SDS011;32867;51.556;6.832;2023-08-24T00:42:56;5.45;;;4.32;;
47113;SDS011;32867;51.556;6.832;2023-08-24T00:47:56;5.82;;;3.60;;
47113;SDS011;32867;51.556;6.832;2023-08-24T00:52:57;6.72;;;4.32;;
47113;SDS011;32867;51.556;6.832;2023-08-24T00:57:58;6.95;;;4.78;;
47113;SDS011;32867;51.556;6.832;2023-08-24T01:03:00;7.10;;;4.65;;
47113;SDS011;32867;51.556;6.832;2023-08-24T01:08:00;5.35;;;4.10;;
47113;SDS011;32867;51.556;6.832;2023-08-24T01:13:02;7.53;;;4.95;;
47113;SDS011;32867;51.556;6.832;2023-08-24T01:18:10;8.98;;;5.53;;
47113;SDS011;32867;51.556;6.832;2023-08-24T01:28:48;9.13;;;4.75;;
47113;SDS011;32867;51.556;6.832;2023-08-24T01:33:50;9.20;;;5.78;;
47113;SDS011;32867;51.556;6.832;2023-08-24T01:39:11;7.53;;;5.30;;
47113;SDS011;32867;51.556;6.832;2023-08-24T01:44:17;7.93;;;4.70;;
47113;SDS011;32867;51.556;6.832;2023-08-24T01:49:21;6.40;;;4.60;;
47113;SDS011;32867;51.556;6.832;2023-08-24T01:54:25;7.07;;;4.65;;
47113;SDS011;32867;51.556;6.832;2023-08-24T01:59:28;5.70;;;4.53;;
47113;SDS011;32867;51.556;6.832;2023-08-24T02:04:29;5.93;;;4.45;;
47113;SDS011;32867;51.556;6.832;2023-08-24T02:09:29;5.57;;;4.18;;
47113;SDS011;32867;51.556;6.832;2023-08-24T02:14:31;5.90;;;4.22;;
47113;SDS011;32867;51.556;6.832;2023-08-24T02:19:32;9.02;;;5.07;;
47113;SDS011;32867;51.556;6.832;2023-08-24T02:24:33;6.00;;;4.80;;
47113;SDS011;32867;51.556;6.832;2023-08-24T02:29:34;7.57;;;4.78;;
47113;SDS011;32867;51.556;6.832;2023-08-24T02:34:34;7.50;;;5.22;;
47113;SDS011;32867;51.556;6.832;2023-08-24T02:39:35;7.05;;;4.85;;
47113;SDS011;32867;51.556;6.832;2023-08-24T02:44:36;6.15;;;4.55;;
47113;SDS011;32867;51.556;6.832;2023-08-24T02:49:37;6.10;;;4.50;;
47113;SDS011;32867;51.556;6.832;2023-08-24T02:54:38;6.60;;;4.63;;
47113;SDS011;32867;51.556;6.832;2023-08-24T02:59:39;6.57;;;4.53;;
47113;SDS011;32867;51.556;6.832;2023-08-24T03:04:43;6.45;;;4.38;;
47113;SDS011;32867;51.556;6.832;2023-08-24T03:09:44;8.40;;;4.70;;
47113;SDS011;32867;51.556;6.832;2023-08-24T03:14:45;9.10;;;4.78;;
47113;SDS011;32867;51.556;6.832;2023-08-24T03:19:46;7.43;;;4.80;;
47113;SDS011;32867;51.556;6.832;2023-08-24T03:24:46;7.43;;;4.95;;
47113;SDS011;32867;51.556;6.832;2023-08-24T03:29:47;7.65;;;4.68;;
47113;SDS011;32867;51.556;6.832;2023-08-24T03:34:48;7.43;;;4.80;;
47113;SDS011;32867;51.556;6.832;2023-08-24T03:39:48;6.45;;;4.80;;
47113;SDS011;32867;51.556;6.832;2023-08-24T03:44:49;5.65;;;4.55;;
47113;SDS011;32867;51.556;6.832;2023-08-24T03:49:50;6.20;;;4.88;;
47113;SDS011;32867;51.556;6.832;2023-08-24T03:54:50;6.72;;;4.18;;
47113;SDS011;32867;51.556;6.832;2023-08-24T03:59:51;5.72;;;4.07;;
47113;SDS011;32867;51.556;6.832;2023-08-24T04:04:52;6.30;;;4.38;;
47113;SDS011;32867;51.556;6.832;2023-08-24T04:09:53;7.70;;;5.03;;
47113;SDS011;32867;51.556;6.832;2023-08-24T04:14:53;7.38;;;5.00;;
47113;SDS011;32867;51.556;6.832;2023-08-24T04:19:54;7.57;;;4.78;;
47113;SDS011;32867;51.556;6.832;2023-08-24T04:24:55;8.07;;;5.18;;
47113;SDS011;32867;51.556;6.832;2023-08-24T04:29:55;7.90;;;6.15;;
47113;SDS011;32867;51.556;6.832;2023-08-24T04:34:56;10.52;;;6.90;;
47113;SDS011;32867;51.556;6.832;2023-08-24T04:39:56;7.85;;;5.10;;
47113;SDS011;32867;51.556;6.832;2023-08-24T04:44:57;9.00;;;5.10;;
47113;SDS011;32867;51.556;6.832;2023-08-24T04:49:58;8.40;;;6.80;;
47113;SDS011;32867;51.556;6.832;2023-08-24T04:54:59;14.23;;;10.77;;
47113;SDS011;32867;51.556;6.832;2023-08-24T04:59:59;14.27;;;9.80;;
47113;SDS011;32867;51.556;6.832;2023-08-24T05:05:00;15.65;;;10.88;;
47113;SDS011;32867;51.556;6.832;2023-08-24T05:10:00;12.65;;;9.18;;
47113;SDS011;32867;51.556;6.832;2023-08-24T05:15:03;13.38;;;8.63;;
47113;SDS011;32867;51.556;6.832;2023-08-24T05:20:05;14.20;;;9.02;;
47113;SDS011;32867;51.556;6.832;2023-08-24T05:25:12;13.50;;;9.55;;
47113;SDS011;32867;51.556;6.832;2023-08-24T05:30:13;11.20;;;7.38;;
47113;SDS011;32867;51.556;6.832;2023-08-24T05:35:13;10.30;;;6.85;;
47113;SDS011;32867;51.556;6.832;2023-08-24T05:40:14;8.88;;;6.63;;
47113;SDS011;32867;51.556;6.832;2023-08-24T05:45:15;10.27;;;7.13;;
47113;SDS011;32867;51.556;6.832;2023-08-24T05:50:16;11.23;;;6.57;;
47113;SDS011;32867;51.556;6.832;2023-08-24T05:55:16;10.60;;;7.10;;
47113;SDS011;32867;51.556;6.832;2023-08-24T06:00:17;10.70;;;7.65;;
47113;SDS011;32867;51.556;6.832;2023-08-24T06:05:18;8.20;;;6.60;;
47113;SDS011;32867;51.556;6.832;2023-08-24T06:10:19;9.07;;;6.97;;
47113;SDS011;32867;51.556;6.832;2023-08-24T06:15:19;9.05;;;7.13;;
47113;SDS011;32867;51.556;6.832;2023-08-24T06:20:23;9.52;;;7.88;;
47113;SDS011;32867;51.556;6.832;2023-08-24T06:25:24;10.07;;;8.13;;
47113;SDS011;32867;51.556;6.832;2023-08-24T06:30:26;10.63;;;7.00;;
47113;SDS011;32867;51.556;6.832;2023-08-24T06:35:27;12.50;;;7.75;;
47113;SDS011;32867;51.556;6.832;2023-08-24T06:40:28;8.65;;;7.25;;
47113;SDS011;32867;51.556;6.832;2023-08-24T06:45:29;8.45;;;7.43;;
47113;SDS011;32867;51.556;6.832;2023-08-24T06:50:30;11.93;;;7.10;;
47113;SDS011;32867;51.556;6.832;2023-08-24T06:55:31;10.93;;;8.23;;
47113;SDS011;32867;51.556;6.832;2023-08-24T07:00:32;9.68;;;7.57;;
47113;SDS011;32867;51.556;6.832;2023-08-24T07:05:33;7.47;;;6.50;;
47113;SDS011;32867;51.556;6.832;2023-08-24T07:10:34;9.27;;;7.18;;
47113;SDS011;32867;51.556;6.832;2023-08-24T07:15:35;10.70;;;8.73;;
47113;SDS011;32867;51.556;6.832;2023-08-24T07:20:36;10.60;;;6.72;;
47113;SDS011;32867;51.556;6.832;2023-08-24T07:25:37;9.43;;;6.63;;
47113;SDS011;32867;51.556;6.832;2023-08-24T07:30:38;8.40;;;6.82;;
47113;SDS011;32867;51.556;6.832;2023-08-24T07:35:38;8.63;;;6.18;;
47113;SDS011;32867;51.556;6.832;2023-08-24T07:40:39;8.68;;;5.80;;
47113;SDS011;32867;51.556;6.832;2023-08-24T07:45:40;9.38;;;5.13;;
47113;SDS011;32867;51.556;6.832;2023-08-24T07:50:40;7.60;;;5.15;;
47113;SDS011;32867;51.556;6.832;2023-08-24T07:55:41;7.90;;;5.15;;
47113;SDS011;32867;51.556;6.832;2023-08-24T08:00:43;8.55;;;5.30;;
47113;SDS011;32867;51.556;6.832;2023-08-24T08:05:44;9.18;;;4.68;;
47113;SDS011;32867;51.556;6.832;2023-08-24T08:10:46;7.32;;;3.97;;
47113;SDS011;32867;51.556;6.832;2023-08-24T08:15:47;6.22;;;4.22;;
47113;SDS011;32867;51.556;6.832;2023-08-24T08:20:50;7.60;;;4.43;;
47113;SDS011;32867;51.556;6.832;2023-08-24T08:25:52;7.70;;;4.55;;
47113;SDS011;32867;51.556;6.832;2023-08-24T08:30:53;6.47;;;3.90;;
47113;SDS011;32867;51.556;6.832;2023-08-24T08:35:54;9.82;;;4.22;;
47113;SDS011;32867;51.556;6.832;2023-08-24T08:40:56;5.72;;;3.22;;
47113;SDS011;32867;51.556;6.832;2023-08-24T08:46:02;5.82;;;3.10;;
47113;SDS011;32867;51.556;6.832;2023-08-24T08:51:03;5.68;;;3.20;;
47113;SDS011;32867;51.556;6.832;2023-08-24T08:56:03;6.25;;;3.30;;
47113;SDS011;32867;51.556;6.832;2023-08-24T09:01:05;5.13;;;2.83;;
47113;SDS011;32867;51.556;6.832;2023-08-24T09:06:07;5.70;;;2.95;;
47113;SDS011;32867;51.556;6.832;2023-08-24T09:11:09;6.20;;;2.95;;
47113;SDS011;32867;51.556;6.832;2023-08-24T09:16:10;6.50;;;3.50;;
47113;SDS011;32867;51.556;6.832;2023-08-24T09:21:15;5.37;;;3.27;;
47113;SDS011;32867;51.556;6.832;2023-08-24T09:26:16;5.00;;;3.10;;
47113;SDS011;32867;51.556;6.832;2023-08-24T09:31:17;5.18;;;2.78;;
47113;SDS011;32867;51.556;6.832;2023-08-24T09:36:17;6.80;;;3.30;;
47113;SDS011;32867;51.556;6.832;2023-08-24T09:41:18;7.03;;;3.03;;
47113;SDS011;32867;51.556;6.832;2023-08-24T09:46:19;7.10;;;3.92;;
47113;SDS011;32867;51.556;6.832;2023-08-24T09:51:22;5.55;;;3.03;;
47113;SDS011;32867;51.556;6.832;2023-08-24T09:56:27;5.30;;;2.78;;
47113;SDS011;32867;51.556;6.832;2023-08-24T10:01:28;7.88;;;3.03;;
47113;SDS011;32867;51.556;6.832;2023-08-24T10:06:30;6.38;;;2.78;;
47113;SDS011;32867;51.556;6.832;2023-08-24T10:11:33;5.93;;;2.83;;
47113;SDS011;32867;51.556;6.832;2023-08-24T10:16:36;5.93;;;3.42;;
47113;SDS011;32867;51.556;6.832;2023-08-24T10:21:38;7.45;;;3.53;;
47113;SDS011;32867;51.556;6.832;2023-08-24T10:26:40;6.35;;;3.30;;
47113;SDS011;32867;51.556;6.832;2023-08-24T10:31:42;6.68;;;3.33;;
47113;SDS011;32867;51.556;6.832;2023-08-24T10:36:46;4.72;;;2.85;;
47113;SDS011;32867;51.556;6.832;2023-08-24T10:41:49;4.72;;;2.42;;
47113;SDS011;32867;51.556;6.832;2023-08-24T10:47:05;7.07;;;2.70;;
47113;SDS011;32867;51.556;6.832;2023-08-24T10:52:31;5.50;;;2.72;;
47113;SDS011;32867;51.556;6.832;2023-08-24T10:57:37;6.30;;;2.80;;
47113;SDS011;32867;51.556;6.832;2023-08-24T11:02:45;5.07;;;2.55;;
47113;SDS011;32867;51.556;6.832;2023-08-24T11:13:05;4.63;;;2.33;;
47113;SDS011;32867;51.556;6.832;2023-08-24T11:18:26;7.47;;;2.60;;
47113;SDS011;32867;51.556;6.832;2023-08-24T11:23:28;3.28;;;2.40;;
47113;SDS011;32867;51.556;6.832;2023-08-24T11:28:29;3.65;;;2.08;;
47113;SDS011;32867;51.556;6.832;2023-08-24T11:33:31;3.95;;;2.20;;
47113;SDS011;32867;51.556;6.832;2023-08-24T11:43:38;6.70;;;2.60;;
47113;SDS011;32867;51.556;6.832;2023-08-24T11:48:39;5.65;;;2.55;;
47113;SDS011;32867;51.556;6.832;2023-08-24T11:53:42;3.95;;;2.35;;
47113;SDS011;32867;51.556;6.832;2023-08-24T11:58:44;4.38;;;2.72;;
47113;SDS011;32867;51.556;6.832;2023-08-24T12:03:49;6.43;;;2.50;;
47113;SDS011;32867;51.556;6.832;2023-08-24T12:08:49;5.03;;;2.33;;
47113;SDS011;32867;51.556;6.832;2023-08-24T12:13:51;3.63;;;2.13;;
47113;SDS011;32867;51.556;6.832;2023-08-24T12:18:54;4.50;;;2.50;;
47113;SDS011;32867;51.556;6.832;2023-08-24T12:24:05;6.30;;;2.80;;
47113;SDS011;32867;51.556;6.832;2023-08-24T12:29:07;8.52;;;2.72;;
47113;SDS011;32867;51.556;6.832;2023-08-24T12:34:09;6.60;;;2.60;;
47113;SDS011;32867;51.556;6.832;2023-08-24T12:39:12;7.05;;;3.00;;
47113;SDS011;32867;51.556;6.832;2023-08-24T12:44:13;6.88;;;2.72;;
47113;SDS011;32867;51.556;6.832;2023-08-24T12:49:14;6.25;;;2.70;;
47113;SDS011;32867;51.556;6.832;2023-08-24T12:54:15;6.28;;;2.90;;
47113;SDS011;32867;51.556;6.832;2023-08-24T12:59:16;6.20;;;3.05;;
47113;SDS011;32867;51.556;6.832;2023-08-24T13:04:17;6.38;;;2.92;;
47113;SDS011;32867;51.556;6.832;2023-08-24T13:09:17;5.53;;;2.60;;
47113;SDS011;32867;51.556;6.832;2023-08-24T13:14:18;6.10;;;2.92;;
47113;SDS011;32867;51.556;6.832;2023-08-24T13:19:19;8.07;;;3.00;;
47113;SDS011;32867;51.556;6.832;2023-08-24T13:24:20;7.47;;;3.03;;
47113;SDS011;32867;51.556;6.832;2023-08-24T13:29:20;7.80;;;3.15;;
47113;SDS011;32867;51.556;6.832;2023-08-24T13:34:21;11.48;;;3.78;;
47113;SDS011;32867;51.556;6.832;2023-08-24T13:39:21;6.35;;;2.80;;
47113;SDS011;32867;51.556;6.832;2023-08-24T13:44:22;8.88;;;3.47;;
47113;SDS011;32867;51.556;6.832;2023-08-24T13:49:23;7.18;;;3.05;;
47113;SDS011;32867;51.556;6.832;2023-08-24T13:54:24;7.63;;;3.53;;
47113;SDS011;32867;51.556;6.832;2023-08-24T13:59:26;5.28;;;2.92;;
47113;SDS011;32867;51.556;6.832;2023-08-24T14:04:27;7.13;;;3.40;;
47113;SDS011;32867;51.556;6.832;2023-08-24T14:09:28;6.45;;;3.05;;
47113;SDS011;32867;51.556;6.832;2023-08-24T14:14:29;7.65;;;2.80;;
47113;SDS011;32867;51.556;6.832;2023-08-24T14:19:30;8.70;;;2.78;;
47113;SDS011;32867;51.556;6.832;2023-08-24T14:24:30;8.98;;;3.28;;
47113;SDS011;32867;51.556;6.832;2023-08-24T14:29:31;7.05;;;2.63;;
47113;SDS011;32867;51.556;6.832;2023-08-24T14:34:31;7.97;;;2.95;;
47113;SDS011;32867;51.556;6.832;2023-08-24T14:39:32;6.55;;;2.47;;
47113;SDS011;32867;51.556;6.832;2023-08-24T14:44:33;6.03;;;2.70;;
47113;SDS011;32867;51.556;6.832;2023-08-24T14:49:35;7.40;;;3.28;;
47113;SDS011;32867;51.556;6.832;2023-08-24T14:54:36;7.35;;;3.08;;
47113;SDS011;32867;51.556;6.832;2023-08-24T14:59:36;10.63;;;3.85;;
47113;SDS011;32867;51.556;6.832;2023-08-24T15:04:37;7.07;;;3.35;;
47113;SDS011;32867;51.556;6.832;2023-08-24T15:09:37;6.72;;;2.95;;
47113;SDS011;32867;51.556;6.832;2023-08-24T15:14:38;9.25;;;3.20;;
47113;SDS011;32867;51.556;6.832;2023-08-24T15:19:58;8.52;;;3.83;;
47113;SDS011;32867;51.556;6.832;2023-08-24T15:24:59;9.35;;;4.32;;
47113;SDS011;32867;51.556;6.832;2023-08-24T15:29:59;8.88;;;3.65;;
47113;SDS011;32867;51.556;6.832;2023-08-24T15:35:04;6.90;;;3.63;;
47113;SDS011;32867;51.556;6.832;2023-08-24T15:40:05;7.85;;;3.50;;
47113;SDS011;32867;51.556;6.832;2023-08-24T15:45:07;8.63;;;2.88;;
47113;SDS011;32867;51.556;6.832;2023-08-24T15:50:08;9.05;;;3.35;;
47113;SDS011;32867;51.556;6.832;2023-08-24T15:55:09;6.25;;;2.17;;
47113;SDS011;32867;51.556;6.832;2023-08-24T16:00:10;5.45;;;2.42;;
47113;SDS011;32867;51.556;6.832;2023-08-24T16:05:14;8.75;;;3.17;;
47113;SDS011;32867;51.556;6.832;2023-08-24T16:10:15;6.13;;;2.63;;
47113;SDS011;32867;51.556;6.832;2023-08-24T16:15:15;7.60;;;2.78;;
47113;SDS011;32867;51.556;6.832;2023-08-24T16:20:16;4.57;;;2.20;;
47113;SDS011;32867;51.556;6.832;2023-08-24T16:25:17;5.57;;;2.42;;
47113;SDS011;32867;51.556;6.832;2023-08-24T16:30:18;6.40;;;2.35;;
47113;SDS011;32867;51.556;6.832;2023-08-24T16:35:20;7.82;;;3.00;;
47113;SDS011;32867;51.556;6.832;2023-08-24T16:40:20;6.00;;;2.28;;
47113;SDS011;32867;51.556;6.832;2023-08-24T16:45:21;5.93;;;2.28;;
47113;SDS011;32867;51.556;6.832;2023-08-24T16:50:23;3.63;;;2.13;;
47113;SDS011;32867;51.556;6.832;2023-08-24T16:55:24;5.47;;;2.25;;
47113;SDS011;32867;51.556;6.832;2023-08-24T17:00:25;4.97;;;2.30;;
47113;SDS011;32867;51.556;6.832;2023-08-24T17:05:26;4.90;;;2.35;;
47113;SDS011;32867;51.556;6.832;2023-08-24T17:10:26;4.30;;;2.10;;
47113;SDS011;32867;51.556;6.832;2023-08-24T17:15:27;4.35;;;2.20;;
47113;SDS011;32867;51.556;6.832;2023-08-24T17:20:28;3.63;;;2.00;;
47113;SDS011;32867;51.556;6.832;2023-08-24T17:25:29;5.05;;;2.30;;
47113;SDS011;32867;51.556;6.832;2023-08-24T17:30:33;3.75;;;1.92;;
47113;SDS011;32867;51.556;6.832;2023-08-24T17:35:34;4.03;;;1.90;;
47113;SDS011;32867;51.556;6.832;2023-08-24T17:40:35;3.90;;;1.90;;
47113;SDS011;32867;51.556;6.832;2023-08-24T17:45:35;4.80;;;2.20;;
47113;SDS011;32867;51.556;6.832;2023-08-24T17:50:37;3.75;;;1.90;;
47113;SDS011;32867;51.556;6.832;2023-08-24T17:55:37;4.18;;;2.25;;
47113;SDS011;32867;51.556;6.832;2023-08-24T18:00:38;4.70;;;2.20;;
47113;SDS011;32867;51.556;6.832;2023-08-24T18:05:39;7.82;;;2.75;;
47113;SDS011;32867;51.556;6.832;2023-08-24T18:10:40;6.13;;;2.42;;
47113;SDS011;32867;51.556;6.832;2023-08-24T18:15:40;4.15;;;2.50;;
47113;SDS011;32867;51.556;6.832;2023-08-24T18:20:41;4.43;;;2.30;;
47113;SDS011;32867;51.556;6.832;2023-08-24T18:25:42;4.72;;;2.50;;
47113;SDS011;32867;51.556;6.832;2023-08-24T18:30:42;5.53;;;2.20;;
47113;SDS011;32867;51.556;6.832;2023-08-24T18:35:43;7.25;;;2.22;;
47113;SDS011;32867;51.556;6.832;2023-08-24T18:40:44;5.05;;;2.08;;
47113;SDS011;32867;51.556;6.832;2023-08-24T18:45:53;4.53;;;2.00;;
47113;SDS011;32867;51.556;6.832;2023-08-24T18:50:55;5.20;;;2.58;;
47113;SDS011;32867;51.556;6.832;2023-08-24T18:55:56;7.03;;;2.20;;
47113;SDS011;32867;51.556;6.832;2023-08-24T19:01:01;4.18;;;1.80;;
47113;SDS011;32867;51.556;6.832;2023-08-24T19:06:03;5.07;;;2.15;;
47113;SDS011;32867;51.556;6.832;2023-08-24T19:11:05;3.20;;;1.80;;
47113;SDS011;32867;51.556;6.832;2023-08-24T19:16:05;5.28;;;1.75;;
47113;SDS011;32867;51.556;6.832;2023-08-24T19:21:06;3.42;;;1.70;;
47113;SDS011;32867;51.556;6.832;2023-08-24T19:26:10;3.80;;;2.20;;
47113;SDS011;32867;51.556;6.832;2023-08-24T19:31:11;3.63;;;1.80;;
47113;SDS011;32867;51.556;6.832;2023-08-24T19:36:12;4.43;;;1.77;;
47113;SDS011;32867;51.556;6.832;2023-08-24T19:41:13;4.53;;;1.65;;
47113;SDS011;32867;51.556;6.832;2023-08-24T19:46:13;3.33;;;2.00;;
47113;SDS011;32867;51.556;6.832;2023-08-24T19:51:14;4.53;;;2.00;;
47113;SDS011;32867;51.556;6.832;2023-08-24T19:56:14;4.63;;;1.90;;
47113;SDS011;32867;51.556;6.832;2023-08-24T20:01:15;4.85;;;1.83;;
47113;SDS011;32867;51.556;6.832;2023-08-24T20:06:20;4.35;;;2.05;;
47113;SDS011;32867;51.556;6.832;2023-08-24T20:11:25;4.15;;;1.92;;
47113;SDS011;32867;51.556;6.832;2023-08-24T20:16:30;5.00;;;2.05;;
47113;SDS011;32867;51.556;6.832;2023-08-24T20:21:31;3.30;;;2.03;;
47113;SDS011;32867;51.556;6.832;2023-08-24T20:26:32;6.07;;;2.60;;
47113;SDS011;32867;51.556;6.832;2023-08-24T20:31:33;4.18;;;2.00;;
47113;SDS011;32867;51.556;6.832;2023-08-24T20:36:34;5.13;;;2.35;;
47113;SDS011;32867;51.556;6.832;2023-08-24T20:41:34;5.25;;;2.17;;
47113;SDS011;32867;51.556;6.832;2023-08-24T20:46:35;5.50;;;2.13;;
47113;SDS011;32867;51.556;6.832;2023-08-24T20:51:36;3.17;;;2.00;;
47113;SDS011;32867;51.556;6.832;2023-08-24T20:56:36;4.72;;;2.10;;
47113;SDS011;32867;51.556;6.832;2023-08-24T21:01:37;8.13;;;2.88;;
47113;SDS011;32867;51.556;6.832;2023-08-24T21:06:38;5.40;;;2.40;;
47113;SDS011;32867;51.556;6.832;2023-08-24T21:11:38;3.85;;;2.10;;
47113;SDS011;32867;51.556;6.832;2023-08-24T21:16:39;5.07;;;2.40;;
47113;SDS011;32867;51.556;6.832;2023-08-24T21:21:40;5.25;;;2.38;;
47113;SDS011;32867;51.556;6.832;2023-08-24T21:26:40;4.55;;;2.47;;
47113;SDS011;32867;51.556;6.832;2023-08-24T21:31:41;5.45;;;2.35;;
47113;SDS011;32867;51.556;6.832;2023-08-24T21:36:42;4.85;;;2.42;;
47113;SDS011;32867;51.556;6.832;2023-08-24T21:41:43;5.35;;;2.90;;
47113;SDS011;32867;51.556;6.832;2023-08-24T21:46:43;4.20;;;2.28;;
47113;SDS011;32867;51.556;6.832;2023-08-24T21:51:44;6.18;;;2.70;;
47113;SDS011;32867;51.556;6.832;2023-08-24T21:56:45;4.20;;;2.20;;
47113;SDS011;32867;51.556;6.832;2023-08-24T22:01:45;5.68;;;2.30;;
47113;SDS011;32867;51.556;6.832;2023-08-24T22:06:46;6.30;;;2.80;;
47113;SDS011;32867;51.556;6.832;2023-08-24T22:11:46;7.28;;;2.88;;
47113;SDS011;32867;51.556;6.832;2023-08-24T22:16:47;5.88;;;2.80;;
47113;SDS011;32867;51.556;6.832;2023-08-24T22:21:48;7.20;;;3.17;;
47113;SDS011;32867;51.556;6.832;2023-08-24T22:26:48;8.95;;;3.05;;
47113;SDS011;32867;51.556;6.832;2023-08-24T22:31:49;7.15;;;3.92;;
47113;SDS011;32867;51.556;6.832;2023-08-24T22:36:50;9.07;;;4.03;;
47113;SDS011;32867;51.556;6.832;2023-08-24T22:41:50;5.35;;;3.38;;
47113;SDS011;32867;51.556;6.832;2023-08-24T22:46:51;8.40;;;3.10;;
47113;SDS011;32867;51.556;6.832;2023-08-24T22:51:51;6.10;;;3.60;;
47113;SDS011;32867;51.556;6.832;2023-08-24T22:56:52;5.40;;;3.08;;
47113;SDS011;32867;51.556;6.832;2023-08-24T23:01:53;5.25;;;2.80;;
47113;SDS011;32867;51.556;6.832;2023-08-24T23:11:57;5.90;;;3.03;;
47113;SDS011;32867;51.556;6.832;2023-08-24T23:16:59;6.78;;;3.80;;
47113;SDS011;32867;51.556;6.832;2023-08-24T23:22:00;7.53;;;3.70;;
47113;SDS011;32867;51.556;6.832;2023-08-24T23:27:01;6.18;;;4.03;;
47113;SDS011;32867;51.556;6.832;2023-08-24T23:32:02;8.40;;;4.35;;
47113;SDS011;32867;51.556;6.832;2023-08-24T23:37:03;9.55;;;4.50;;
47113;SDS011;32867;51.556;6.832;2023-08-24T23:42:05;8.55;;;4.20;;
47113;SDS011;32867;51.556;6.832;2023-08-24T23:47:06;6.72;;;3.63;;
47113;SDS011;32867;51.556;6.832;2023-08-24T23:52:07;5.45;;;2.80;;
47113;SDS011;32867;51.556;6.832;2023-08-24T23:57:08;6.32;;;3.28;;
